Time;durP1;ratioP1;P1;durP2;ratioP2;P2;SDS_P1;SDS_P2;PMS_P1;PMS_P2;Temp;Humidity;BMP_temperature;BMP_pressure;BME280_temperature;BME280_humidity;BME280_pressure;Samples;Min_cycle;Max_cycle;Signal;HPM_P1;HPM_P2
2023/08/12 00:07:36;;;;;;;;;;;17.60;99.90;;;;;;20912461;28;19917;-74
2023/08/12 00:17:37;;;;;;;;;;;17.90;99.90;;;;;;20874745;28;19962;-74
2023/08/12 00:27:38;;;;;;;;;;;17.80;99.90;;;;;;20898013;28;19924;-74
2023/08/12 00:37:39;;;;;;;;;;;17.90;99.90;;;;;;20893666;28;19960;-74
2023/08/12 00:47:40;;;;;;;;;;;17.80;99.90;;;;;;20899748;28;20295;-74
2023/08/12 00:57:43;;;;;;;;;;;17.80;99.90;;;;;;20893584;28;19928;-74
2023/08/12 01:07:46;;;;;;;;;;;17.90;99.90;;;;;;20902210;28;19917;-74
2023/08/12 01:17:51;;;;;;;;;;;17.70;99.90;;;;;;20897783;28;19912;-74
2023/08/12 01:27:52;;;;;;;;;;;17.90;99.90;;;;;;20920157;28;19923;-74
2023/08/12 01:37:53;;;;;;;;;;;18.00;99.90;;;;;;20910216;28;19913;-74
2023/08/12 01:47:56;;;;;;;;;;;18.10;99.90;;;;;;20871098;28;19917;-74
2023/08/12 01:57:56;;;;;;;;;;;18.00;99.90;;;;;;20885114;28;19955;-74
2023/08/12 02:07:57;;;;;;;;;;;17.90;99.90;;;;;;20878011;28;19921;-74
2023/08/12 02:17:59;;;;;;;;;;;17.70;99.90;;;;;;20908707;28;19913;-74
2023/08/12 02:27:59;;;;;;;;;;;17.60;99.90;;;;;;20818056;28;1808023;-75
2023/08/12 02:38:00;;;;;;;;;;;17.70;99.90;;;;;;20884657;28;19948;-75
2023/08/12 02:48:01;;;;;;;;;;;17.80;99.90;;;;;;20892785;28;19923;-74
2023/08/12 02:58:01;;;;;;;;;;;17.40;99.90;;;;;;20901849;28;19932;-75
2023/08/12 03:08:03;;;;;;;;;;;17.60;99.90;;;;;;20891481;28;19971;-75
2023/08/12 03:18:04;;;;;;;;;;;17.70;99.90;;;;;;20925213;28;19916;-75
2023/08/12 03:28:06;;;;;;;;;;;17.90;99.90;;;;;;20885893;28;19917;-74
2023/08/12 03:38:08;;;;;;;;;;;18.00;99.90;;;;;;20889772;28;20339;-74
2023/08/12 03:48:09;;;;;;;;;;;18.10;99.90;;;;;;20928708;28;19924;-74
2023/08/12 03:58:10;;;;;;;;;;;18.30;99.90;;;;;;20892329;28;19920;-74
2023/08/12 04:08:12;;;;;;;;;;;18.20;99.90;;;;;;20889484;28;20303;-74
2023/08/12 04:18:12;;;;;;;;;;;18.00;99.90;;;;;;20877141;28;19913;-74
2023/08/12 04:28:14;;;;;;;;;;;18.10;99.90;;;;;;20851582;28;19917;-74
2023/08/12 04:38:15;;;;;;;;;;;18.00;99.90;;;;;;20893886;28;19920;-74
2023/08/12 04:48:17;;;;;;;;;;;18.10;99.90;;;;;;20904340;28;19971;-74
2023/08/12 04:58:17;;;;;;;;;;;18.10;99.90;;;;;;20899578;28;20256;-74
2023/08/12 05:08:19;;;;;;;;;;;18.20;99.90;;;;;;20890544;28;19924;-75
2023/08/12 05:18:23;;;;;;;;;;;18.30;99.90;;;;;;20884822;28;19913;-74
2023/08/12 05:28:24;;;;;;;;;;;18.20;99.90;;;;;;20892840;23;20014;-76
2023/08/12 05:38:24;;;;;;;;;;;18.30;99.90;;;;;;20862709;28;20295;-75
2023/08/12 05:48:25;;;;;;;;;;;18.30;99.90;;;;;;20894183;28;19978;-75
2023/08/12 05:58:26;;;;;;;;;;;18.40;99.90;;;;;;20887664;28;20219;-76
2023/08/12 06:08:26;;;;;;;;;;;19.30;99.90;;;;;;20890161;28;19972;-74
2023/08/12 06:18:27;;;;;;;;;;;20.00;99.90;;;;;;20896275;28;19917;-76
2023/08/12 06:28:27;;;;;;;;;;;20.30;99.90;;;;;;20902185;28;19962;-76
2023/08/12 06:38:28;;;;;;;;;;;20.30;99.90;;;;;;20887278;28;19988;-76
2023/08/12 06:48:29;;;;;;;;;;;20.20;99.90;;;;;;20891103;28;20020;-76
2023/08/12 06:58:29;;;;;;;;;;;19.90;99.90;;;;;;20873102;28;19923;-76
2023/08/12 07:08:31;;;;;;;;;;;19.60;99.90;;;;;;20906285;28;19971;-75
2023/08/12 07:18:31;;;;;;;;;;;20.00;99.90;;;;;;20912212;28;19919;-76
2023/08/12 07:28:32;;;;;;;;;;;19.90;99.90;;;;;;20891781;28;20015;-76
2023/08/12 07:38:33;;;;;;;;;;;20.70;99.90;;;;;;20891788;28;20283;-76
2023/08/12 07:48:33;;;;;;;;;;;22.00;99.90;;;;;;20885771;28;19917;-76
2023/08/12 07:58:34;;;;;;;;;;;21.30;99.90;;;;;;20905567;28;19921;-76
2023/08/12 08:08:35;;;;;;;;;;;21.20;99.90;;;;;;20895200;28;20372;-77
2023/08/12 08:18:35;;;;;;;;;;;22.40;99.90;;;;;;20909093;28;19913;-77
2023/08/12 08:28:37;;;;;;;;;;;24.60;99.90;;;;;;20908147;28;19923;-77
2023/08/12 08:38:37;;;;;;;;;;;24.30;99.90;;;;;;20908376;28;19913;-77
2023/08/12 08:48:38;;;;;;;;;;;23.70;99.90;;;;;;20908139;28;19917;-77
2023/08/12 08:58:39;;;;;;;;;;;24.00;99.90;;;;;;20889475;28;20371;-78
2023/08/12 09:08:42;;;;;;;;;;;24.30;99.90;;;;;;20906890;28;19970;-77
2023/08/12 09:18:43;;;;;;;;;;;23.90;99.90;;;;;;20908054;28;19912;-77
2023/08/12 09:28:44;;;;;;;;;;;23.80;99.90;;;;;;20922017;28;19921;-77
2023/08/12 09:38:44;;;;;;;;;;;23.50;99.90;;;;;;20920894;28;19958;-77
2023/08/12 09:48:45;;;;;;;;;;;23.00;99.90;;;;;;20920204;28;20366;-77
2023/08/12 09:58:49;;;;;;;;;;;22.80;99.90;;;;;;20917782;28;20357;-76
2023/08/12 10:08:50;;;;;;;;;;;23.10;99.90;;;;;;20919133;28;20379;-77
2023/08/12 10:18:51;;;;;;;;;;;23.90;99.90;;;;;;20903958;28;19923;-77
2023/08/12 10:28:52;;;;;;;;;;;23.30;99.90;;;;;;20850460;28;19917;-77
2023/08/12 10:38:53;;;;;;;;;;;23.90;99.90;;;;;;20837647;28;19970;-77
2023/08/12 10:49:02;;;;;;;;;;;23.60;99.90;;;;;;20859973;28;20425;-78
2023/08/12 10:59:03;;;;;;;;;;;23.60;99.90;;;;;;20862258;28;19917;-77
2023/08/12 11:09:06;;;;;;;;;;;23.40;99.90;;;;;;20881895;28;19972;-77
2023/08/12 11:19:07;;;;;;;;;;;23.50;99.90;;;;;;20854039;28;20007;-77
2023/08/12 11:29:09;;;;;;;;;;;24.80;99.90;;;;;;20925551;22;20454;-79
2023/08/12 11:39:09;;;;;;;;;;;26.60;99.90;;;;;;21018651;28;20003;-78
2023/08/12 11:49:10;;;;;;;;;;;27.70;99.90;;;;;;21017246;28;19921;-79
2023/08/12 11:59:11;;;;;;;;;;;28.80;99.90;;;;;;21025651;28;20454;-79
2023/08/12 12:09:13;;;;;;;;;;;28.40;99.90;;;;;;21000611;28;19924;-78
2023/08/12 12:19:17;;;;;;;;;;;29.10;99.90;;;;;;20996678;28;19912;-78
2023/08/12 12:29:18;;;;;;;;;;;29.50;99.90;;;;;;20995152;28;20354;-79
2023/08/12 12:39:18;;;;;;;;;;;30.30;99.90;;;;;;20976375;28;19912;-79
2023/08/12 12:49:19;;;;;;;;;;;29.50;99.90;;;;;;20989448;28;19931;-79
2023/08/12 12:59:20;;;;;;;;;;;29.70;99.90;;;;;;20992921;28;20389;-79
2023/08/12 13:09:21;;;;;;;;;;;28.80;99.90;;;;;;20997660;28;19921;-79
2023/08/12 13:19:21;;;;;;;;;;;28.10;99.90;;;;;;20994027;28;19919;-79
2023/08/12 13:29:22;;;;;;;;;;;29.10;99.90;;;;;;20997009;28;19917;-79
2023/08/12 13:39:23;;;;;;;;;;;30.80;99.90;;;;;;20976831;28;20547;-78
2023/08/12 13:49:23;;;;;;;;;;;28.50;99.90;;;;;;20994733;28;20002;-79
2023/08/12 13:59:24;;;;;;;;;;;28.10;99.90;;;;;;21004712;28;19921;-79
2023/08/12 14:09:25;;;;;;;;;;;27.80;99.90;;;;;;21003411;28;19921;-79
2023/08/12 14:19:25;;;;;;;;;;;26.70;99.90;;;;;;21020755;28;19947;-79
2023/08/12 14:29:26;;;;;;;;;;;26.70;99.90;;;;;;21022712;28;19927;-79
2023/08/12 14:39:27;;;;;;;;;;;26.20;99.90;;;;;;20993911;28;20421;-78
2023/08/12 14:49:27;;;;;;;;;;;26.10;99.90;;;;;;21009554;28;19947;-80
2023/08/12 14:59:28;;;;;;;;;;;26.70;99.90;;;;;;21006730;28;19951;-79
2023/08/12 15:09:29;;;;;;;;;;;26.20;99.90;;;;;;20943746;28;19924;-81
2023/08/12 15:19:29;;;;;;;;;;;25.90;99.90;;;;;;20966615;28;19919;-79
2023/08/12 15:29:30;;;;;;;;;;;25.60;99.90;;;;;;21006861;28;20402;-79
2023/08/12 15:39:31;;;;;;;;;;;24.80;99.90;;;;;;20997349;28;19916;-79
2023/08/12 15:49:32;;;;;;;;;;;26.00;99.90;;;;;;20987782;28;19916;-77
2023/08/12 15:59:33;;;;;;;;;;;25.40;99.90;;;;;;20979085;28;19912;-77
2023/08/12 16:09:34;;;;;;;;;;;25.30;99.90;;;;;;20981167;28;19924;-77
2023/08/12 16:19:35;;;;;;;;;;;25.40;99.90;;;;;;21003476;28;19920;-77
2023/08/12 16:29:36;;;;;;;;;;;25.40;99.90;;;;;;20982477;28;20013;-77
2023/08/12 16:39:36;;;;;;;;;;;25.70;99.90;;;;;;20994598;28;19912;-78
2023/08/12 16:49:37;;;;;;;;;;;26.20;99.90;;;;;;21021587;28;19922;-81
2023/08/12 16:59:37;;;;;;;;;;;26.40;99.90;;;;;;21023494;28;19912;-80
2023/08/12 17:09:38;;;;;;;;;;;26.20;99.90;;;;;;21022277;28;19921;-80
2023/08/12 17:19:39;;;;;;;;;;;25.90;99.90;;;;;;21007261;28;19912;-79
2023/08/12 17:29:39;;;;;;;;;;;25.80;99.90;;;;;;20999841;22;20361;-75
2023/08/12 17:39:40;;;;;;;;;;;25.50;99.90;;;;;;20878433;28;19916;-75
2023/08/12 17:49:41;;;;;;;;;;;25.70;99.90;;;;;;20913137;28;20396;-75
2023/08/12 17:59:41;;;;;;;;;;;25.20;99.90;;;;;;20921222;28;20010;-75
2023/08/12 18:09:42;;;;;;;;;;;24.90;99.90;;;;;;20917563;28;19917;-74
2023/08/12 18:19:42;;;;;;;;;;;24.50;99.90;;;;;;20881402;28;19921;-75
2023/08/12 18:29:44;;;;;;;;;;;24.00;99.90;;;;;;20879909;28;19960;-75
2023/08/12 18:39:45;;;;;;;;;;;23.60;99.90;;;;;;20885281;28;20410;-75
2023/08/12 18:49:45;;;;;;;;;;;23.70;99.90;;;;;;20878307;28;19924;-75
2023/08/12 18:59:46;;;;;;;;;;;23.60;99.90;;;;;;20881196;28;19991;-75
2023/08/12 19:09:47;;;;;;;;;;;22.80;99.90;;;;;;20880280;28;19928;-75
2023/08/12 19:19:47;;;;;;;;;;;22.30;99.90;;;;;;20873271;28;19920;-76
2023/08/12 19:29:48;;;;;;;;;;;22.10;99.90;;;;;;20869076;28;19916;-76
2023/08/12 19:39:48;;;;;;;;;;;22.30;99.90;;;;;;20875863;28;19913;-76
2023/08/12 19:49:49;;;;;;;;;;;22.40;99.90;;;;;;20870146;28;19917;-76
2023/08/12 19:59:50;;;;;;;;;;;22.00;99.90;;;;;;20872678;28;19913;-76
2023/08/12 20:09:51;;;;;;;;;;;21.60;99.90;;;;;;20888120;28;20179;-76
2023/08/12 20:19:52;;;;;;;;;;;21.90;99.90;;;;;;20865226;28;19913;-75
2023/08/12 20:29:52;;;;;;;;;;;21.40;99.90;;;;;;20865722;28;19940;-75
2023/08/12 20:39:53;;;;;;;;;;;21.50;99.90;;;;;;20865321;28;20331;-75
2023/08/12 20:49:54;;;;;;;;;;;21.70;99.90;;;;;;20862489;28;20296;-75
2023/08/12 20:59:55;;;;;;;;;;;21.30;99.90;;;;;;20860855;28;19926;-75
2023/08/12 21:09:55;;;;;;;;;;;20.70;99.90;;;;;;20862475;28;19921;-75
2023/08/12 21:19:57;;;;;;;;;;;20.20;99.90;;;;;;20889377;28;20405;-75
2023/08/12 21:29:57;;;;;;;;;;;20.40;99.90;;;;;;20891431;28;20379;-75
2023/08/12 21:39:58;;;;;;;;;;;20.40;99.90;;;;;;20893364;28;19964;-76
2023/08/12 21:49:59;;;;;;;;;;;20.20;99.90;;;;;;20893590;28;19921;-76
2023/08/12 21:59:59;;;;;;;;;;;19.90;99.90;;;;;;20838396;28;19917;-75
2023/08/12 22:10:00;;;;;;;;;;;19.80;99.90;;;;;;20836329;28;19924;-75
2023/08/12 22:20:04;;;;;;;;;;;19.90;99.90;;;;;;20917210;28;19921;-75
2023/08/12 22:30:05;;;;;;;;;;;19.70;99.90;;;;;;20918034;28;19916;-76
2023/08/12 22:40:06;;;;;;;;;;;19.50;99.90;;;;;;20925552;28;19934;-76
2023/08/12 22:50:07;;;;;;;;;;;19.30;99.90;;;;;;20891799;28;19917;-75
2023/08/12 23:00:08;;;;;;;;;;;18.70;99.90;;;;;;20833871;28;19975;-76
2023/08/12 23:10:09;;;;;;;;;;;18.80;99.90;;;;;;20833474;28;20446;-76
2023/08/12 23:20:10;;;;;;;;;;;18.90;99.90;;;;;;20874378;28;19955;-76
2023/08/12 23:30:14;;;;;;;;;;;18.90;99.90;;;;;;20924654;28;19932;-77
2023/08/12 23:40:15;;;;;;;;;;;18.80;99.90;;;;;;20917723;28;19928;-77
2023/08/12 23:50:15;;;;;;;;;;;18.70;99.90;;;;;;20895477;28;20285;-77
